Time;durP1;ratioP1;P1;durP2;ratioP2;P2;SDS_P1;SDS_P2;PMS_P1;PMS_P2;Temp;Humidity;BMP_temperature;BMP_pressure;BME280_temperature;BME280_humidity;BME280_pressure;Samples;Min_cycle;Max_cycle;Signal;HPM_P1;HPM_P2
2023/06/14 00:01:38;;;;;;;7.95;3.92;;;;;;;;;;7374398;19;20007;-65
2023/06/14 00:04:05;;;;;;;6.00;3.58;;;;;;;;;;7375835;19;20010;-65
2023/06/14 00:06:31;;;;;;;6.65;4.13;;;;;;;;;;7374229;19;20002;-65
2023/06/14 00:08:56;;;;;;;7.38;3.83;;;;;;;;;;7397153;19;20014;-65
2023/06/14 00:11:21;;;;;;;7.18;3.90;;;;;;;;;;7375312;19;20015;-65
2023/06/14 00:13:47;;;;;;;7.25;3.95;;;;;;;;;;7377150;19;20224;-65
2023/06/14 00:16:12;;;;;;;10.63;3.88;;;;;;;;;;7375829;19;20010;-65
2023/06/14 00:18:38;;;;;;;10.05;4.13;;;;;;;;;;7375374;19;20428;-65
2023/06/14 00:21:06;;;;;;;7.82;4.13;;;;;;;;;;7396417;19;20006;-66
2023/06/14 00:23:32;;;;;;;7.47;4.00;;;;;;;;;;7374447;19;20006;-66
2023/06/14 00:25:57;;;;;;;7.78;4.45;;;;;;;;;;7374043;19;20002;-65
2023/06/14 00:28:22;;;;;;;13.77;4.05;;;;;;;;;;7368983;19;20015;-65
2023/06/14 00:30:48;;;;;;;11.32;4.20;;;;;;;;;;7370556;19;20031;-65
2023/06/14 00:33:13;;;;;;;7.45;4.10;;;;;;;;;;7390893;19;20039;-65
2023/06/14 00:35:38;;;;;;;7.05;3.95;;;;;;;;;;7368838;19;20082;-65
2023/06/14 00:38:04;;;;;;;7.68;4.25;;;;;;;;;;7369467;19;20014;-65
2023/06/14 00:40:29;;;;;;;6.35;3.95;;;;;;;;;;7368234;19;20018;-65
2023/06/14 00:42:55;;;;;;;9.68;3.97;;;;;;;;;;7368393;19;20019;-65
2023/06/14 00:45:20;;;;;;;6.47;3.80;;;;;;;;;;7389785;19;20031;-65
2023/06/14 00:47:46;;;;;;;8.25;3.95;;;;;;;;;;7366714;19;20010;-64
2023/06/14 00:50:11;;;;;;;9.68;4.95;;;;;;;;;;7367971;19;20031;-65
2023/06/14 00:52:37;;;;;;;6.82;3.85;;;;;;;;;;7368049;19;20081;-64
2023/06/14 00:55:03;;;;;;;6.78;3.88;;;;;;;;;;7368805;19;20096;-65
2023/06/14 00:57:29;;;;;;;5.43;3.50;;;;;;;;;;7368332;19;20018;-65
2023/06/14 00:59:55;;;;;;;7.22;4.00;;;;;;;;;;7389143;19;20018;-65
2023/06/14 01:02:20;;;;;;;6.18;3.83;;;;;;;;;;7368421;19;20377;-64
2023/06/14 01:04:48;;;;;;;10.07;3.90;;;;;;;;;;7367963;19;20010;-66
2023/06/14 01:07:36;;;;;;;8.65;3.72;;;;;;;;;;7368102;19;20473;-65
2023/06/14 01:10:35;;;;;;;8.18;3.80;;;;;;;;;;7368646;19;20017;-66
2023/06/14 01:13:36;;;;;;;8.05;3.80;;;;;;;;;;7366555;19;20006;-66
2023/06/14 01:16:03;;;;;;;7.40;3.83;;;;;;;;;;7367543;19;20015;-65
2023/06/14 01:18:29;;;;;;;6.10;3.80;;;;;;;;;;7366316;19;20014;-64
2023/06/14 01:20:55;;;;;;;5.70;3.30;;;;;;;;;;7387575;19;20010;-66
2023/06/14 01:23:22;;;;;;;9.93;4.00;;;;;;;;;;7367347;19;20007;-64
2023/06/14 01:25:52;;;;;;;7.28;3.55;;;;;;;;;;7367555;19;20014;-65
2023/06/14 01:28:20;;;;;;;7.13;3.80;;;;;;;;;;7367395;19;20011;-64
2023/06/14 01:30:49;;;;;;;7.90;3.60;;;;;;;;;;7366587;19;20072;-65
2023/06/14 01:33:17;;;;;;;8.40;3.45;;;;;;;;;;7388872;19;20420;-65
2023/06/14 01:35:44;;;;;;;9.32;3.50;;;;;;;;;;7367386;19;20002;-65
2023/06/14 01:38:10;;;;;;;6.50;3.53;;;;;;;;;;7366611;19;20045;-64
2023/06/14 01:40:36;;;;;;;8.25;3.78;;;;;;;;;;7363638;19;20018;-64
2023/06/14 01:43:03;;;;;;;7.18;3.50;;;;;;;;;;7365602;19;20006;-64
2023/06/14 01:45:29;;;;;;;9.13;4.03;;;;;;;;;;7366305;19;20007;-64
2023/06/14 01:47:55;;;;;;;8.45;3.85;;;;;;;;;;7388445;19;20017;-65
2023/06/14 01:50:21;;;;;;;9.07;3.67;;;;;;;;;;7367939;19;20011;-65
2023/06/14 01:52:46;;;;;;;5.72;3.50;;;;;;;;;;7366786;19;20031;-64
2023/06/14 01:55:11;;;;;;;11.30;4.40;;;;;;;;;;7368463;19;20010;-65
2023/06/14 01:57:37;;;;;;;8.82;3.58;;;;;;;;;;7367423;19;20354;-66
2023/06/14 02:00:04;;;;;;;8.63;3.88;;;;;;;;;;7387319;19;20011;-65
2023/06/14 02:02:29;;;;;;;8.65;3.67;;;;;;;;;;7366347;19;20044;-66
2023/06/14 02:04:57;;;;;;;6.72;3.75;;;;;;;;;;7369289;19;20010;-64
2023/06/14 02:07:22;;;;;;;8.93;3.90;;;;;;;;;;7366996;19;20022;-65
2023/06/14 02:09:48;;;;;;;7.75;3.63;;;;;;;;;;7367675;19;20007;-65
2023/06/14 02:12:13;;;;;;;7.22;3.80;;;;;;;;;;7388155;19;20010;-65
2023/06/14 02:14:39;;;;;;;10.32;4.00;;;;;;;;;;7365656;19;20017;-65
2023/06/14 02:17:06;;;;;;;7.75;3.83;;;;;;;;;;7365268;19;20022;-65
2023/06/14 02:19:32;;;;;;;6.57;3.35;;;;;;;;;;7365595;19;20032;-64
2023/06/14 02:21:57;;;;;;;8.63;4.00;;;;;;;;;;7365444;19;20022;-65
2023/06/14 02:24:23;;;;;;;8.40;4.00;;;;;;;;;;7387696;19;20006;-65
2023/06/14 02:26:49;;;;;;;8.32;3.35;;;;;;;;;;7365390;19;20038;-66
2023/06/14 02:29:14;;;;;;;7.57;3.70;;;;;;;;;;7366115;19;20433;-64
2023/06/14 02:31:42;;;;;;;13.73;4.45;;;;;;;;;;7365605;19;20006;-66
2023/06/14 02:34:10;;;;;;;8.27;3.80;;;;;;;;;;7364759;19;20018;-66
2023/06/14 02:36:41;;;;;;;7.13;3.83;;;;;;;;;;7364532;19;20067;-66
2023/06/14 02:39:07;;;;;;;6.45;3.70;;;;;;;;;;7384422;19;20023;-65
2023/06/14 02:41:32;;;;;;;5.35;3.60;;;;;;;;;;7364675;19;20014;-65
2023/06/14 02:43:58;;;;;;;6.88;3.78;;;;;;;;;;7364122;19;20015;-66
2023/06/14 02:46:23;;;;;;;6.05;3.63;;;;;;;;;;7363143;19;20010;-64
2023/06/14 02:48:49;;;;;;;6.45;3.67;;;;;;;;;;7364627;19;20022;-66
2023/06/14 02:51:14;;;;;;;6.55;3.75;;;;;;;;;;7387091;19;20592;-65
2023/06/14 02:53:40;;;;;;;7.20;3.63;;;;;;;;;;7364547;19;20013;-65
2023/06/14 02:56:05;;;;;;;7.40;3.70;;;;;;;;;;7365768;19;20030;-65
2023/06/14 02:58:31;;;;;;;6.95;3.33;;;;;;;;;;7365334;19;19998;-65
2023/06/14 03:00:56;;;;;;;8.40;3.20;;;;;;;;;;7364839;19;20039;-65
2023/06/14 03:03:24;;;;;;;6.28;3.30;;;;;;;;;;7388499;19;20027;-65
2023/06/14 03:05:50;;;;;;;8.40;3.20;;;;;;;;;;7370014;19;20019;-64
2023/06/14 03:08:19;;;;;;;8.82;3.78;;;;;;;;;;7376649;19;20094;-63
2023/06/14 03:10:47;;;;;;;11.68;3.85;;;;;;;;;;7376458;19;20014;-63
2023/06/14 03:13:13;;;;;;;7.88;3.92;;;;;;;;;;7377091;19;20010;-64
2023/06/14 03:15:41;;;;;;;7.85;3.15;;;;;;;;;;7376437;19;20010;-65
2023/06/14 03:18:09;;;;;;;10.73;3.72;;;;;;;;;;7391334;19;20010;-65
2023/06/14 03:20:34;;;;;;;5.97;3.47;;;;;;;;;;7369486;19;20022;-65
2023/06/14 03:23:00;;;;;;;11.20;3.55;;;;;;;;;;7368364;19;20010;-65
2023/06/14 03:25:29;;;;;;;9.45;3.50;;;;;;;;;;7371106;19;20035;-65
2023/06/14 03:27:55;;;;;;;8.35;3.20;;;;;;;;;;7370045;19;20037;-65
2023/06/14 03:30:20;;;;;;;5.90;3.38;;;;;;;;;;7391937;19;20544;-65
2023/06/14 03:32:46;;;;;;;6.07;3.65;;;;;;;;;;7370636;19;20018;-64
2023/06/14 03:35:16;;;;;;;7.80;3.55;;;;;;;;;;7371999;19;20078;-65
2023/06/14 03:37:42;;;;;;;5.93;3.05;;;;;;;;;;7371433;19;20381;-65
2023/06/14 03:40:08;;;;;;;8.57;3.60;;;;;;;;;;7372423;19;20010;-65
2023/06/14 03:42:33;;;;;;;11.25;3.50;;;;;;;;;;7372465;19;20039;-65
2023/06/14 03:44:59;;;;;;;9.40;3.55;;;;;;;;;;7394578;19;20006;-65
2023/06/14 03:47:24;;;;;;;7.90;3.65;;;;;;;;;;7370659;19;20089;-65
2023/06/14 03:49:50;;;;;;;8.32;3.60;;;;;;;;;;7372291;19;20003;-66
2023/06/14 03:52:17;;;;;;;8.00;3.60;;;;;;;;;;7371798;19;20009;-65
2023/06/14 03:54:44;;;;;;;6.97;3.20;;;;;;;;;;7372409;19;20013;-64
2023/06/14 03:57:10;;;;;;;5.18;3.40;;;;;;;;;;7392916;19;20020;-65
2023/06/14 03:59:36;;;;;;;7.90;3.60;;;;;;;;;;7371600;19;20042;-65
2023/06/14 04:02:02;;;;;;;7.00;3.60;;;;;;;;;;7367579;19;20014;-65
2023/06/14 04:04:29;;;;;;;7.72;3.65;;;;;;;;;;7380769;19;20002;-65
2023/06/14 04:06:56;;;;;;;7.32;3.50;;;;;;;;;;7377779;19;20465;-65
2023/06/14 04:09:24;;;;;;;5.75;3.15;;;;;;;;;;7393071;19;20472;-66
2023/06/14 04:11:50;;;;;;;11.38;3.60;;;;;;;;;;7371518;19;20066;-65
2023/06/14 04:14:15;;;;;;;10.10;4.00;;;;;;;;;;7370814;19;20044;-65
2023/06/14 04:16:40;;;;;;;6.80;3.63;;;;;;;;;;7370029;19;20069;-65
2023/06/14 04:19:06;;;;;;;7.80;3.53;;;;;;;;;;7369961;19;20018;-65
2023/06/14 04:21:34;;;;;;;8.45;3.42;;;;;;;;;;7370792;19;20002;-65
2023/06/14 04:24:01;;;;;;;6.45;3.53;;;;;;;;;;7392454;19;20014;-66
2023/06/14 04:26:29;;;;;;;7.43;3.40;;;;;;;;;;7370040;19;20030;-67
2023/06/14 04:28:56;;;;;;;7.63;3.33;;;;;;;;;;7368694;19;20033;-66
2023/06/14 04:31:24;;;;;;;7.53;3.60;;;;;;;;;;7370031;19;20010;-66
2023/06/14 04:33:52;;;;;;;14.82;3.97;;;;;;;;;;7368829;19;20027;-66
2023/06/14 04:36:18;;;;;;;8.98;3.58;;;;;;;;;;7392268;19;20037;-66
2023/06/14 04:38:44;;;;;;;9.02;3.70;;;;;;;;;;7371118;19;20114;-66
2023/06/14 04:41:11;;;;;;;9.13;3.70;;;;;;;;;;7369522;19;20041;-63
2023/06/14 04:43:37;;;;;;;9.20;3.72;;;;;;;;;;7372038;19;20033;-73
2023/06/14 04:46:05;;;;;;;8.18;3.17;;;;;;;;;;7369561;19;20015;-73
2023/06/14 04:48:31;;;;;;;10.20;3.55;;;;;;;;;;7363045;19;20522;-71
2023/06/14 04:50:56;;;;;;;7.00;3.60;;;;;;;;;;7390856;19;19999;-71
2023/06/14 04:53:23;;;;;;;7.88;3.78;;;;;;;;;;7370609;19;20025;-73
2023/06/14 04:55:48;;;;;;;8.00;3.50;;;;;;;;;;7370774;19;20014;-72
2023/06/14 04:58:14;;;;;;;5.60;3.45;;;;;;;;;;7369800;19;20010;-73
2023/06/14 05:00:41;;;;;;;7.28;3.60;;;;;;;;;;7368967;19;20042;-73
2023/06/14 05:03:06;;;;;;;7.03;3.42;;;;;;;;;;7388958;19;20013;-72
2023/06/14 05:05:32;;;;;;;5.15;3.20;;;;;;;;;;7367684;19;20003;-73
2023/06/14 05:07:58;;;;;;;6.78;3.60;;;;;;;;;;7368052;19;20015;-73
2023/06/14 05:10:24;;;;;;;7.50;3.25;;;;;;;;;;7367870;19;20014;-73
2023/06/14 05:12:50;;;;;;;6.47;3.60;;;;;;;;;;7370591;19;20030;-73
2023/06/14 05:15:15;;;;;;;7.85;3.47;;;;;;;;;;7392240;19;20360;-73
2023/06/14 05:17:41;;;;;;;5.97;3.65;;;;;;;;;;7368746;19;20025;-73
2023/06/14 05:20:08;;;;;;;7.15;3.63;;;;;;;;;;7368333;19;20010;-72
2023/06/14 05:22:33;;;;;;;9.27;3.72;;;;;;;;;;7370040;19;20536;-73
2023/06/14 05:24:58;;;;;;;8.27;3.28;;;;;;;;;;7369615;19;20035;-73
2023/06/14 05:27:25;;;;;;;11.95;3.45;;;;;;;;;;7385280;19;20035;-73
2023/06/14 05:29:50;;;;;;;5.32;3.38;;;;;;;;;;7361525;19;20030;-73
2023/06/14 05:32:15;;;;;;;8.07;3.45;;;;;;;;;;7365305;19;20103;-73
2023/06/14 05:34:42;;;;;;;14.25;5.15;;;;;;;;;;7364817;19;20021;-73
2023/06/14 05:37:08;;;;;;;10.25;3.80;;;;;;;;;;7366623;19;20520;-73
2023/06/14 05:39:33;;;;;;;7.50;3.30;;;;;;;;;;7365754;19;20007;-73
2023/06/14 05:41:58;;;;;;;6.05;3.28;;;;;;;;;;7391752;19;20034;-73
2023/06/14 05:44:24;;;;;;;6.15;3.30;;;;;;;;;;7369719;19;20010;-73
2023/06/14 05:46:49;;;;;;;8.77;4.07;;;;;;;;;;7368465;19;20011;-73
2023/06/14 05:49:14;;;;;;;5.35;3.10;;;;;;;;;;7371621;19;20003;-72
2023/06/14 05:51:40;;;;;;;8.88;3.15;;;;;;;;;;7371557;19;20003;-72
2023/06/14 05:54:05;;;;;;;6.32;2.90;;;;;;;;;;7392240;19;20010;-73
2023/06/14 05:56:30;;;;;;;6.50;3.20;;;;;;;;;;7370390;19;20014;-72
2023/06/14 05:58:56;;;;;;;8.00;3.45;;;;;;;;;;7369535;19;20016;-73
2023/06/14 06:01:21;;;;;;;6.32;3.17;;;;;;;;;;7370279;19;20070;-73
2023/06/14 06:03:47;;;;;;;7.80;2.90;;;;;;;;;;7371606;19;20018;-72
2023/06/14 06:06:13;;;;;;;8.52;2.80;;;;;;;;;;7393310;19;20082;-72
2023/06/14 06:08:38;;;;;;;4.75;2.65;;;;;;;;;;7368899;19;20021;-71
2023/06/14 06:11:04;;;;;;;5.15;2.90;;;;;;;;;;7370089;19;20353;-62
2023/06/14 06:13:29;;;;;;;7.55;3.42;;;;;;;;;;7378974;19;20013;-63
2023/06/14 06:15:56;;;;;;;8.88;2.63;;;;;;;;;;7370170;19;20010;-63
2023/06/14 06:18:21;;;;;;;5.50;2.90;;;;;;;;;;7388189;19;20006;-61
2023/06/14 06:20:47;;;;;;;6.93;3.28;;;;;;;;;;7365721;19;20028;-64
2023/06/14 06:23:12;;;;;;;5.78;2.72;;;;;;;;;;7367262;19;20011;-70
2023/06/14 06:25:37;;;;;;;7.28;2.33;;;;;;;;;;7366671;19;20047;-70
2023/06/14 06:28:03;;;;;;;5.05;2.67;;;;;;;;;;7361699;19;20010;-70
2023/06/14 06:30:28;;;;;;;9.10;3.28;;;;;;;;;;7364849;19;19999;-70
2023/06/14 06:32:55;;;;;;;8.45;3.38;;;;;;;;;;7389725;19;19999;-70
2023/06/14 06:35:20;;;;;;;8.70;3.08;;;;;;;;;;7363866;19;20006;-70
2023/06/14 06:37:46;;;;;;;6.07;3.17;;;;;;;;;;7364866;19;20003;-70
2023/06/14 06:40:12;;;;;;;5.63;3.22;;;;;;;;;;7368963;19;20013;-69
2023/06/14 06:42:37;;;;;;;7.10;3.38;;;;;;;;;;7372816;19;20016;-69
2023/06/14 06:45:03;;;;;;;5.90;3.40;;;;;;;;;;7400297;19;20662;-69
2023/06/14 06:47:28;;;;;;;8.02;3.38;;;;;;;;;;7377481;19;20011;-70
2023/06/14 06:49:54;;;;;;;9.05;3.35;;;;;;;;;;7376651;19;20006;-70
2023/06/14 06:52:19;;;;;;;8.48;3.22;;;;;;;;;;7374915;19;20006;-69
2023/06/14 06:54:45;;;;;;;6.82;2.60;;;;;;;;;;7373469;19;20015;-71
2023/06/14 06:57:10;;;;;;;6.53;3.13;;;;;;;;;;7394682;19;20003;-70
2023/06/14 06:59:36;;;;;;;8.80;3.08;;;;;;;;;;7371712;19;20043;-70
2023/06/14 07:02:02;;;;;;;6.05;3.33;;;;;;;;;;7372288;19;20006;-70
2023/06/14 07:04:27;;;;;;;7.63;3.15;;;;;;;;;;7369955;19;20400;-70
2023/06/14 07:06:53;;;;;;;8.20;3.47;;;;;;;;;;7373407;19;20027;-69
2023/06/14 07:09:20;;;;;;;8.03;3.43;;;;;;;;;;7393683;19;20003;-70
2023/06/14 07:11:46;;;;;;;11.38;3.03;;;;;;;;;;7372216;19;20267;-70
2023/06/14 07:14:12;;;;;;;6.63;3.00;;;;;;;;;;7366866;19;20476;-70
2023/06/14 07:16:38;;;;;;;7.18;3.50;;;;;;;;;;7372669;19;20021;-70
2023/06/14 07:19:04;;;;;;;11.05;3.08;;;;;;;;;;7371817;19;20014;-70
2023/06/14 07:21:29;;;;;;;6.85;3.08;;;;;;;;;;7372000;19;20423;-70
2023/06/14 07:23:55;;;;;;;10.15;3.67;;;;;;;;;;7393301;19;20026;-70
2023/06/14 07:26:21;;;;;;;6.97;3.30;;;;;;;;;;7370985;19;20006;-70
2023/06/14 07:28:48;;;;;;;10.05;3.22;;;;;;;;;;7373426;19;20788;-71
2023/06/14 07:31:14;;;;;;;10.02;3.42;;;;;;;;;;7372715;19;20018;-70
2023/06/14 07:33:40;;;;;;;6.43;3.00;;;;;;;;;;7371462;19;20007;-70
2023/06/14 07:36:05;;;;;;;6.22;2.65;;;;;;;;;;7394402;19;20340;-70
2023/06/14 07:38:31;;;;;;;5.88;3.00;;;;;;;;;;7370566;19;20070;-71
2023/06/14 07:40:56;;;;;;;6.25;3.08;;;;;;;;;;7371318;19;20021;-70
2023/06/14 07:43:21;;;;;;;3.80;2.40;;;;;;;;;;7372035;19;20094;-70
2023/06/14 07:45:47;;;;;;;5.18;2.13;;;;;;;;;;7373017;19;20090;-70
2023/06/14 07:48:12;;;;;;;6.18;2.58;;;;;;;;;;7392610;19;20568;-70
2023/06/14 07:50:37;;;;;;;6.80;2.78;;;;;;;;;;7368325;19;20010;-70
2023/06/14 07:53:03;;;;;;;12.18;3.28;;;;;;;;;;7370590;19;20007;-70
2023/06/14 07:55:28;;;;;;;6.13;2.95;;;;;;;;;;7370134;19;20010;-70
2023/06/14 07:57:54;;;;;;;7.63;2.80;;;;;;;;;;7368615;19;20026;-70
2023/06/14 08:00:20;;;;;;;5.50;2.30;;;;;;;;;;7390463;19;19998;-70
2023/06/14 08:02:45;;;;;;;6.60;2.67;;;;;;;;;;7370871;19;20002;-70
2023/06/14 08:05:11;;;;;;;3.80;2.50;;;;;;;;;;7369451;19;20046;-70
2023/06/14 08:07:37;;;;;;;7.30;2.30;;;;;;;;;;7368710;19;20039;-70
2023/06/14 08:10:04;;;;;;;5.07;2.90;;;;;;;;;;7367710;19;20026;-69
2023/06/14 08:12:29;;;;;;;6.28;2.38;;;;;;;;;;7368245;19;20067;-70
2023/06/14 08:14:55;;;;;;;4.65;2.85;;;;;;;;;;7393083;19;20009;-70
2023/06/14 08:17:20;;;;;;;6.95;2.70;;;;;;;;;;7369587;19;20086;-71
2023/06/14 08:19:45;;;;;;;7.15;1.90;;;;;;;;;;7369764;19;20010;-71
2023/06/14 08:22:12;;;;;;;4.78;2.40;;;;;;;;;;7370916;19;20022;-71
2023/06/14 08:24:37;;;;;;;4.63;2.47;;;;;;;;;;7368824;19;20007;-70
2023/06/14 08:27:02;;;;;;;6.80;2.53;;;;;;;;;;7389200;19;20010;-71
2023/06/14 08:29:31;;;;;;;3.80;2.47;;;;;;;;;;7368109;19;20006;-71
2023/06/14 08:31:56;;;;;;;4.18;2.45;;;;;;;;;;7368271;19;20477;-71
2023/06/14 08:34:23;;;;;;;6.32;2.47;;;;;;;;;;7368834;19;20175;-70
2023/06/14 08:36:50;;;;;;;7.82;2.60;;;;;;;;;;7368642;19;20624;-70
2023/06/14 08:39:15;;;;;;;4.88;2.53;;;;;;;;;;7389669;19;20015;-70
2023/06/14 08:41:43;;;;;;;7.03;2.30;;;;;;;;;;7368778;19;20010;-71
2023/06/14 08:44:08;;;;;;;5.68;2.30;;;;;;;;;;7367543;19;20119;-71
2023/06/14 08:46:34;;;;;;;7.40;2.33;;;;;;;;;;7368592;19;20014;-71
2023/06/14 08:49:01;;;;;;;9.60;2.90;;;;;;;;;;7367827;19;20472;-71
2023/06/14 08:51:33;;;;;;;3.20;1.95;;;;;;;;;;7374992;19;20006;-71
2023/06/14 08:54:01;;;;;;;6.53;2.20;;;;;;;;;;7391413;19;20505;-71
2023/06/14 08:56:30;;;;;;;8.00;2.47;;;;;;;;;;7366371;19;20006;-70
2023/06/14 08:58:57;;;;;;;6.30;2.50;;;;;;;;;;7369084;19;20037;-70
2023/06/14 09:01:23;;;;;;;7.50;2.03;;;;;;;;;;7368121;19;20021;-70
2023/06/14 09:03:50;;;;;;;5.70;2.00;;;;;;;;;;7366307;19;20018;-70
2023/06/14 09:06:15;;;;;;;2.85;1.67;;;;;;;;;;7389474;19;20026;-69
2023/06/14 09:08:46;;;;;;;4.53;2.10;;;;;;;;;;7365812;19;20078;-70
2023/06/14 09:11:14;;;;;;;;;;;;;;;;;;7364927;19;20078;-70
2023/06/14 09:13:41;;;;;;;4.80;2.00;;;;;;;;;;7366698;19;19938;-70
2023/06/14 09:16:07;;;;;;;6.75;2.00;;;;;;;;;;7366282;19;20011;-70
2023/06/14 09:18:49;;;;;;;4.38;1.85;;;;;;;;;;7364944;19;20031;-69
2023/06/14 09:21:16;;;;;;;3.13;2.00;;;;;;;;;;7380784;19;20018;-70
2023/06/14 09:23:43;;;;;;;4.95;2.08;;;;;;;;;;7366722;19;20010;-70
2023/06/14 09:26:11;;;;;;;3.53;2.00;;;;;;;;;;7367582;19;20011;-70
2023/06/14 09:28:40;;;;;;;6.90;2.75;;;;;;;;;;7365635;19;20015;-70
2023/06/14 09:31:08;;;;;;;5.65;2.30;;;;;;;;;;7368873;19;20021;-70
2023/06/14 09:33:34;;;;;;;5.93;1.98;;;;;;;;;;7366733;19;20018;-72
2023/06/14 09:35:59;;;;;;;5.00;1.70;;;;;;;;;;7389204;19;20834;-71
2023/06/14 09:38:25;;;;;;;4.80;2.10;;;;;;;;;;7365636;19;20098;-71
2023/06/14 09:40:51;;;;;;;3.58;1.73;;;;;;;;;;7366156;19;20033;-71
2023/06/14 09:43:18;;;;;;;3.65;1.98;;;;;;;;;;7365665;19;20477;-71
2023/06/14 09:45:45;;;;;;;7.20;2.03;;;;;;;;;;7365560;19;20010;-71
2023/06/14 09:48:11;;;;;;;4.13;1.90;;;;;;;;;;7385871;19;20482;-70
2023/06/14 09:50:37;;;;;;;5.53;1.52;;;;;;;;;;7363706;19;20430;-71
2023/06/14 09:53:06;;;;;;;6.75;1.70;;;;;;;;;;7366003;19;20010;-70
2023/06/14 09:55:35;;;;;;;4.40;1.70;;;;;;;;;;7365246;19;20102;-71
2023/06/14 09:58:04;;;;;;;6.25;1.65;;;;;;;;;;7364316;19;20105;-71
2023/06/14 10:00:33;;;;;;;5.22;2.10;;;;;;;;;;7352362;19;20027;-71
2023/06/14 10:03:03;;;;;;;2.97;1.85;;;;;;;;;;7386852;19;20350;-70
2023/06/14 10:05:29;;;;;;;4.03;1.80;;;;;;;;;;7366131;19;20103;-70
2023/06/14 10:08:03;;;;;;;4.80;1.95;;;;;;;;;;7363755;19;20038;-70
2023/06/14 10:10:28;;;;;;;4.38;1.80;;;;;;;;;;7365692;19;20069;-70
2023/06/14 10:12:54;;;;;;;2.47;1.70;;;;;;;;;;7361166;19;20557;-70
2023/06/14 10:15:28;;;;;;;1.85;1.60;;;;;;;;;;7391452;19;20025;-71
2023/06/14 10:17:59;;;;;;;3.28;1.90;;;;;;;;;;7371732;19;20002;-70
2023/06/14 10:20:27;;;;;;;4.53;1.95;;;;;;;;;;7370094;19;20015;-70
2023/06/14 10:22:58;;;;;;;3.63;2.00;;;;;;;;;;7372678;19;20011;-71
2023/06/14 10:25:31;;;;;;;2.65;1.80;;;;;;;;;;7373365;19;20010;-71
2023/06/14 10:28:12;;;;;;;6.90;2.15;;;;;;;;;;7371060;19;20011;-71
2023/06/14 10:30:37;;;;;;;3.85;1.88;;;;;;;;;;7372256;19;19999;-70
2023/06/14 10:33:04;;;;;;;3.30;1.73;;;;;;;;;;7393835;19;20611;-69
2023/06/14 10:35:30;;;;;;;11.90;2.10;;;;;;;;;;7374283;19;20452;-71
2023/06/14 10:37:55;;;;;;;4.55;2.10;;;;;;;;;;7377812;19;20044;-71
2023/06/14 10:40:30;;;;;;;5.50;1.80;;;;;;;;;;7377661;19;20050;-71
2023/06/14 10:42:56;;;;;;;6.15;2.03;;;;;;;;;;7379624;19;20006;-70
2023/06/14 10:45:21;;;;;;;2.03;1.70;;;;;;;;;;7399834;19;20010;-70
2023/06/14 10:47:49;;;;;;;3.53;1.85;;;;;;;;;;7372736;19;20013;-70
2023/06/14 10:50:16;;;;;;;2.20;1.70;;;;;;;;;;7373267;19;20413;-70
2023/06/14 10:52:43;;;;;;;3.33;1.88;;;;;;;;;;7371882;19;20406;-70
2023/06/14 10:55:17;;;;;;;6.72;2.00;;;;;;;;;;7372081;19;20010;-71
2023/06/14 10:57:49;;;;;;;3.38;1.85;;;;;;;;;;7370755;19;20020;-71
2023/06/14 11:00:20;;;;;;;4.70;2.15;;;;;;;;;;7391622;19;20335;-71
2023/06/14 11:03:16;;;;;;;3.10;1.80;;;;;;;;;;7370610;19;20130;-71
2023/06/14 11:05:47;;;;;;;5.82;2.20;;;;;;;;;;7371614;19;20820;-71
2023/06/14 11:08:31;;;;;;;4.88;2.10;;;;;;;;;;7370384;19;20473;-71
2023/06/14 11:11:00;;;;;;;4.28;2.15;;;;;;;;;;7371826;19;20014;-71
2023/06/14 11:13:26;;;;;;;4.22;1.83;;;;;;;;;;7372539;19;20014;-70
2023/06/14 11:15:53;;;;;;;4.20;2.20;;;;;;;;;;7371679;19;20035;-70
2023/06/14 11:18:19;;;;;;;8.38;2.30;;;;;;;;;;7388409;19;20390;-71
2023/06/14 11:20:46;;;;;;;3.35;2.03;;;;;;;;;;7365507;19;20014;-71
2023/06/14 11:23:11;;;;;;;3.45;2.00;;;;;;;;;;7368458;19;20027;-71
2023/06/14 11:25:37;;;;;;;3.10;2.10;;;;;;;;;;7366965;19;20085;-71
2023/06/14 11:28:02;;;;;;;3.72;1.75;;;;;;;;;;7365816;19;20073;-71
2023/06/14 11:30:27;;;;;;;2.78;1.80;;;;;;;;;;7368107;19;20023;-70
2023/06/14 11:32:55;;;;;;;3.58;1.95;;;;;;;;;;7389620;19;20028;-71
2023/06/14 11:35:24;;;;;;;7.40;1.80;;;;;;;;;;7367238;19;20011;-70
2023/06/14 11:37:53;;;;;;;3.75;2.00;;;;;;;;;;7365548;19;20024;-70
2023/06/14 11:40:19;;;;;;;4.68;2.10;;;;;;;;;;7368988;19;20473;-71
2023/06/14 11:42:44;;;;;;;5.15;1.92;;;;;;;;;;7370481;19;20010;-71
2023/06/14 11:45:11;;;;;;;4.68;2.00;;;;;;;;;;7390645;19;20007;-70
2023/06/14 11:47:39;;;;;;;9.05;3.15;;;;;;;;;;7368345;19;20078;-70
2023/06/14 11:50:08;;;;;;;5.78;2.97;;;;;;;;;;7366958;19;20048;-70
2023/06/14 11:52:35;;;;;;;4.97;2.00;;;;;;;;;;7368817;19;20052;-73
2023/06/14 11:55:02;;;;;;;5.15;2.50;;;;;;;;;;7370752;19;20348;-63
2023/06/14 11:57:28;;;;;;;4.78;2.30;;;;;;;;;;7371737;19;20031;-65
2023/06/14 11:59:54;;;;;;;4.05;2.20;;;;;;;;;;7391844;19;20010;-63
2023/06/14 12:02:21;;;;;;;9.75;2.67;;;;;;;;;;7369995;19;20414;-65
2023/06/14 12:04:51;;;;;;;4.55;1.80;;;;;;;;;;7369271;19;20027;-64
2023/06/14 12:07:19;;;;;;;3.97;2.10;;;;;;;;;;7368204;19;20039;-64
2023/06/14 12:09:54;;;;;;;3.65;2.17;;;;;;;;;;7365390;19;20370;-63
2023/06/14 12:12:21;;;;;;;4.00;2.13;;;;;;;;;;7390967;19;20348;-62
2023/06/14 12:14:47;;;;;;;4.25;2.35;;;;;;;;;;7368271;19;20489;-62
2023/06/14 12:17:12;;;;;;;8.05;2.30;;;;;;;;;;7366429;19;20014;-62
2023/06/14 12:19:45;;;;;;;4.03;1.90;;;;;;;;;;7363460;19;20051;-63
2023/06/14 12:22:14;;;;;;;3.88;2.33;;;;;;;;;;7367310;19;20026;-62
2023/06/14 12:24:43;;;;;;;5.82;2.63;;;;;;;;;;7367599;19;20010;-62
2023/06/14 12:27:08;;;;;;;5.38;2.30;;;;;;;;;;7389171;19;20025;-64
2023/06/14 12:29:33;;;;;;;8.32;2.78;;;;;;;;;;7367781;19;20364;-62
2023/06/14 12:31:59;;;;;;;3.17;2.15;;;;;;;;;;7366667;19;20003;-63
2023/06/14 12:34:26;;;;;;;4.43;2.45;;;;;;;;;;7362118;19;20377;-69
2023/06/14 12:36:53;;;;;;;3.53;2.20;;;;;;;;;;7365553;19;20025;-68
2023/06/14 12:39:18;;;;;;;4.15;2.00;;;;;;;;;;7388334;19;20011;-68
2023/06/14 12:41:48;;;;;;;4.80;2.10;;;;;;;;;;7367521;19;20181;-70
2023/06/14 12:44:14;;;;;;;3.53;2.10;;;;;;;;;;7366880;19;20070;-71
2023/06/14 12:46:41;;;;;;;3.90;2.33;;;;;;;;;;7361197;19;20006;-71
2023/06/14 12:49:08;;;;;;;4.10;2.10;;;;;;;;;;7377905;19;19998;-63
2023/06/14 12:51:34;;;;;;;6.07;2.40;;;;;;;;;;7374930;19;20030;-71
2023/06/14 12:54:00;;;;;;;4.00;1.98;;;;;;;;;;7392867;19;20582;-71
2023/06/14 12:56:26;;;;;;;4.95;2.20;;;;;;;;;;7366144;19;20366;-68
2023/06/14 12:58:51;;;;;;;4.55;2.35;;;;;;;;;;7366121;19;20018;-68
2023/06/14 13:01:17;;;;;;;3.50;2.00;;;;;;;;;;7367478;19;20368;-69
2023/06/14 13:03:42;;;;;;;6.18;2.22;;;;;;;;;;7367715;19;20028;-70
2023/06/14 13:06:08;;;;;;;5.10;2.17;;;;;;;;;;7389476;19;20868;-70
2023/06/14 13:08:33;;;;;;;4.05;1.80;;;;;;;;;;7366784;19;19999;-70
2023/06/14 13:10:58;;;;;;;3.40;2.10;;;;;;;;;;7368215;19;20014;-70
2023/06/14 13:13:23;;;;;;;4.20;2.28;;;;;;;;;;7368388;19;20017;-70
2023/06/14 13:15:50;;;;;;;2.55;1.80;;;;;;;;;;7371654;19;20014;-69
2023/06/14 13:18:16;;;;;;;3.72;2.40;;;;;;;;;;7390508;19;20003;-70
2023/06/14 13:20:42;;;;;;;5.78;2.22;;;;;;;;;;7368306;19;20027;-68
2023/06/14 13:23:08;;;;;;;5.28;2.35;;;;;;;;;;7370141;19;20010;-70
2023/06/14 13:25:34;;;;;;;4.63;2.20;;;;;;;;;;7372104;19;20052;-69
2023/06/14 13:28:00;;;;;;;5.07;2.00;;;;;;;;;;7371407;19;20011;-67
2023/06/14 13:30:25;;;;;;;3.80;1.90;;;;;;;;;;7395463;19;20009;-69
2023/06/14 13:32:51;;;;;;;3.35;2.10;;;;;;;;;;7372213;19;20010;-61
2023/06/14 13:35:17;;;;;;;3.53;2.13;;;;;;;;;;7369792;19;20046;-62
2023/06/14 13:37:43;;;;;;;3.83;2.30;;;;;;;;;;7367725;19;20051;-70
2023/06/14 13:40:08;;;;;;;9.23;2.30;;;;;;;;;;7368592;19;20003;-62
2023/06/14 13:42:35;;;;;;;5.32;2.28;;;;;;;;;;7365680;19;20043;-63
2023/06/14 13:45:01;;;;;;;4.70;2.55;;;;;;;;;;7386738;19;19998;-63
2023/06/14 13:47:26;;;;;;;7.85;2.50;;;;;;;;;;7365034;19;20031;-62
2023/06/14 13:49:51;;;;;;;4.57;2.75;;;;;;;;;;7362585;19;20034;-62
2023/06/14 13:52:17;;;;;;;5.25;2.65;;;;;;;;;;7364252;19;20218;-63
2023/06/14 13:54:43;;;;;;;2.78;2.05;;;;;;;;;;7364370;19;20017;-68
2023/06/14 13:57:09;;;;;;;6.68;2.75;;;;;;;;;;7393902;19;20003;-68
2023/06/14 13:59:34;;;;;;;5.30;2.47;;;;;;;;;;7374338;19;20087;-69
2023/06/14 14:02:00;;;;;;;5.10;2.47;;;;;;;;;;7372654;19;20007;-68
2023/06/14 14:04:26;;;;;;;4.85;2.53;;;;;;;;;;7369647;19;20461;-67
2023/06/14 14:06:51;;;;;;;5.90;2.22;;;;;;;;;;7370061;19;20017;-68
2023/06/14 14:09:17;;;;;;;3.42;2.22;;;;;;;;;;7394142;19;20010;-69
2023/06/14 14:11:42;;;;;;;3.60;2.40;;;;;;;;;;7375214;19;20031;-69
2023/06/14 14:14:08;;;;;;;5.30;2.33;;;;;;;;;;7366931;19;20086;-69
2023/06/14 14:16:34;;;;;;;5.18;2.50;;;;;;;;;;7365883;19;20021;-69
2023/06/14 14:19:00;;;;;;;5.07;2.40;;;;;;;;;;7366508;19;20374;-70
2023/06/14 14:21:25;;;;;;;5.55;2.38;;;;;;;;;;7386309;19;20015;-62
2023/06/14 14:23:51;;;;;;;3.60;2.30;;;;;;;;;;7365651;19;20013;-66
2023/06/14 14:26:16;;;;;;;6.35;2.50;;;;;;;;;;7360658;19;20294;-63
2023/06/14 14:28:41;;;;;;;8.63;2.72;;;;;;;;;;7360246;19;20130;-67
2023/06/14 14:31:07;;;;;;;4.50;2.70;;;;;;;;;;7361859;19;20082;-66
2023/06/14 14:33:32;;;;;;;7.55;2.88;;;;;;;;;;7362177;19;19998;-66
2023/06/14 14:35:57;;;;;;;5.00;2.80;;;;;;;;;;7383908;19;20383;-65
2023/06/14 14:38:23;;;;;;;4.53;2.38;;;;;;;;;;7362614;19;20015;-66
2023/06/14 14:40:48;;;;;;;6.65;2.70;;;;;;;;;;7363737;19;20018;-62